Time;durP1;ratioP1;P1;durP2;ratioP2;P2;SDS_P1;SDS_P2;PMS_P1;PMS_P2;Temp;Humidity;BMP_temperature;BMP_pressure;BME280_temperature;BME280_humidity;BME280_pressure;Samples;Min_cycle;Max_cycle;Signal;HPM_P1;HPM_P2
2022/12/21 00:02:04;;;;;;;8.77;5.97;;;;;;;7.14;100.00;153195.00;5068873;28;20833;-86
2022/12/21 00:04:50;;;;;;;8.10;6.53;;;;;;;7.18;100.00;153205.31;5069216;28;20452;-86
2022/12/21 00:07:36;;;;;;;5.50;4.90;;;;;;;7.26;100.00;153225.97;5068377;28;20690;-86
2022/12/21 00:10:21;;;;;;;6.80;6.07;;;;;;;7.24;100.00;153220.81;5063693;28;21006;-86
2022/12/21 00:13:07;;;;;;;6.70;6.07;;;;;;;7.24;100.00;153220.81;5069751;28;20817;-86
2022/12/21 00:15:57;;;;;;;8.83;5.60;;;;;;;7.24;100.00;153219.53;5068465;28;20458;-86
2022/12/21 00:18:42;;;;;;;8.63;6.23;;;;;;;7.29;100.00;153233.72;5067437;28;20583;-86
2022/12/21 00:21:32;;;;;;;9.17;6.60;;;;;;;7.25;100.00;153223.38;5066015;28;20969;-86
2022/12/21 00:24:17;;;;;;;7.23;6.53;;;;;;;7.26;100.00;153225.97;5084238;28;20436;-86
2022/12/21 00:27:03;;;;;;;8.47;7.30;;;;;;;7.25;100.00;153222.13;5066002;28;20580;-86
2022/12/21 00:29:48;;;;;;;8.17;7.20;;;;;;;7.23;100.00;153216.91;5070078;28;20445;-86
2022/12/21 00:32:34;;;;;;;8.83;6.97;;;;;;;7.22;100.00;153214.38;5072302;28;20442;-86
2022/12/21 00:35:19;;;;;;;7.90;7.10;;;;;;;7.16;100.00;153198.84;5068767;28;21063;-86
2022/12/21 00:38:05;;;;;;;8.63;7.50;;;;;;;7.14;100.00;153195.00;5058884;28;20568;-86
2022/12/21 00:40:56;;;;;;;7.93;7.17;;;;;;;7.24;100.00;153220.81;5067120;28;20445;-87
2022/12/21 00:43:43;;;;;;;9.57;7.67;;;;;;;7.28;100.00;153231.13;5068612;28;20457;-86
2022/12/21 00:46:30;;;;;;;8.63;7.80;;;;;;;7.15;100.00;153197.56;5067440;28;20445;-86
2022/12/21 00:49:15;;;;;;;9.87;8.87;;;;;;;7.16;100.00;153200.16;5070189;28;20446;-86
2022/12/21 00:52:01;;;;;;;9.67;7.80;;;;;;;7.14;100.00;153195.00;5070701;28;20434;-86
2022/12/21 00:54:47;;;;;;;10.87;7.77;;;;;;;7.10;100.00;153184.66;5077190;28;20451;-86
2022/12/21 00:57:33;;;;;;;9.17;8.20;;;;;;;7.06;100.00;153173.03;5071445;28;20998;-86
2022/12/21 01:00:19;;;;;;;9.07;7.97;;;;;;;7.08;100.00;153179.50;5075282;28;20978;-85
2022/12/21 01:03:04;;;;;;;10.93;8.60;;;;;;;7.00;100.00;153158.84;5078147;28;20453;-86
2022/12/21 01:05:50;;;;;;;9.37;8.40;;;;;;;7.06;100.00;153174.34;5067123;28;20465;-85
2022/12/21 01:08:36;;;;;;;8.90;7.93;;;;;;;7.10;100.00;153183.34;5070542;28;20434;-86
2022/12/21 01:11:23;;;;;;;7.97;7.17;;;;;;;7.09;100.00;153182.09;5070004;28;20449;-86
2022/12/21 01:14:08;;;;;;;9.20;7.80;;;;;;;7.16;100.00;153198.84;5067334;28;20611;-86
2022/12/21 01:16:54;;;;;;;8.57;7.10;;;;;;;7.10;100.00;153184.66;5072349;28;20422;-86
2022/12/21 01:19:42;;;;;;;10.63;8.00;;;;;;;7.09;100.00;153182.09;5067250;28;22004;-86
2022/12/21 01:22:29;;;;;;;10.00;7.80;;;;;;;7.10;100.00;153184.66;5086887;28;20957;-86
2022/12/21 01:25:14;;;;;;;9.70;7.70;;;;;;;7.10;100.00;153184.66;5075290;28;20446;-86
2022/12/21 01:28:02;;;;;;;9.57;7.73;;;;;;;7.03;100.00;153166.59;5074470;28;20988;-86
2022/12/21 01:30:48;;;;;;;9.07;8.17;;;;;;;6.99;100.00;153156.25;5072017;28;20445;-86
2022/12/21 01:33:33;;;;;;;8.63;7.73;;;;;;;6.99;100.00;153155.00;5072687;28;20455;-86
2022/12/21 01:36:19;;;;;;;8.33;7.50;;;;;;;6.98;100.00;153152.38;5069904;28;20427;-86
2022/12/21 01:39:04;;;;;;;9.93;8.20;;;;;;;7.02;100.00;153162.69;5072212;28;20628;-86
2022/12/21 01:41:49;;;;;;;11.03;7.80;;;;;;;7.00;100.00;153158.84;5071323;28;20589;-86
2022/12/21 01:45:07;;;;;;;10.33;8.23;;;;;;;6.98;100.00;153153.69;5060888;28;20523;-86
2022/12/21 01:47:55;;;;;;;8.50;7.60;;;;;;;7.06;100.00;153173.03;5018602;28;20976;-86
2022/12/21 01:50:43;;;;;;;8.43;7.40;;;;;;;7.06;100.00;153174.34;5070463;28;20428;-86
2022/12/21 01:53:32;;;;;;;8.87;7.83;;;;;;;7.08;100.00;153179.50;5065742;28;20925;-86
2022/12/21 01:56:23;;;;;;;6.90;6.20;;;;;;;7.12;100.00;153188.56;5075604;28;20596;-86
2022/12/21 01:59:11;;;;;;;6.67;5.97;;;;;;;7.10;100.00;153184.66;5067777;28;20477;-86
2022/12/21 02:01:59;;;;;;;8.70;7.43;;;;;;;7.10;100.00;153183.34;5074480;28;20771;-86
2022/12/21 02:04:44;;;;;;;7.50;6.00;;;;;;;7.12;100.00;153189.81;5079572;28;20454;-85
2022/12/21 02:07:29;;;;;;;8.47;6.03;;;;;;;7.19;100.00;153207.91;5078716;28;20438;-86
2022/12/21 02:10:15;;;;;;;7.97;6.50;;;;;;;7.16;100.00;153198.84;5065181;28;20447;-86
2022/12/21 02:13:03;;;;;;;7.33;6.63;;;;;;;7.14;100.00;153195.00;5071412;28;20928;-86
2022/12/21 02:16:07;;;;;;;7.07;6.17;;;;;;;7.21;100.00;153213.06;5084893;28;20672;-86
2022/12/21 02:19:06;;;;;;;7.80;5.67;;;;;;;7.17;100.00;153202.75;5077872;28;20995;-86
2022/12/21 02:21:52;;;;;;;6.10;5.30;;;;;;;7.25;100.00;153222.13;5080690;28;20454;-86
2022/12/21 02:25:16;;;;;;;6.23;5.63;;;;;;;7.29;100.00;153233.72;5069170;28;20945;-86
2022/12/21 02:28:47;;;;;;;7.03;5.50;;;;;;;7.31;100.00;153238.88;5060818;28;20939;-86
2022/12/21 02:31:40;;;;;;;7.60;4.60;;;;;;;7.32;100.00;153241.47;5066529;28;20425;-86
2022/12/21 02:34:32;;;;;;;5.60;5.10;;;;;;;7.34;100.00;153246.63;5061981;28;20446;-86
2022/12/21 02:37:21;;;;;;;9.37;5.87;;;;;;;7.38;100.00;153254.41;5063448;28;20847;-86
2022/12/21 02:40:14;;;;;;;5.47;4.10;;;;;;;7.45;100.00;153272.47;5066095;28;20500;-86
2022/12/21 02:46:24;;;;;;;5.83;4.43;;;;;;;7.49;100.00;153284.13;5045583;28;20446;-86
2022/12/21 02:49:13;;;;;;;5.50;4.20;;;;;;;7.60;100.00;153311.25;5067959;28;20591;-86
2022/12/21 02:52:02;;;;;;;5.30;4.50;;;;;;;7.57;100.00;153303.47;5078930;28;20441;-86
2022/12/21 02:54:48;;;;;;;5.67;4.03;;;;;;;7.52;100.00;153290.56;5070685;28;20449;-86
2022/12/21 02:57:34;;;;;;;6.63;4.93;;;;;;;7.52;100.00;153291.81;5086003;28;20413;-86
2022/12/21 03:00:20;;;;;;;4.97;4.47;;;;;;;7.49;100.00;153282.81;5066728;28;20467;-86
2022/12/21 03:06:44;;;;;;;6.60;3.83;;;;;;;7.52;100.00;153290.56;5072909;28;20512;-86
2022/12/21 03:09:40;;;;;;;5.03;3.60;;;;;;;7.54;100.00;153295.72;5059439;28;21005;-86
2022/12/21 03:12:33;;;;;;;4.37;3.70;;;;;;;7.53;100.00;153294.44;5062016;28;20443;-86
2022/12/21 03:15:22;;;;;;;5.17;4.37;;;;;;;7.56;100.00;153300.88;5059739;28;20637;-86
2022/12/21 03:18:17;;;;;;;6.40;4.00;;;;;;;7.60;100.00;153311.25;5056580;28;20463;-86
2022/12/21 03:21:06;;;;;;;5.23;4.40;;;;;;;7.61;100.00;153315.09;5085479;28;20438;-86
2022/12/21 03:23:56;;;;;;;5.17;4.27;;;;;;;7.67;100.00;153329.31;5072881;28;20442;-86
2022/12/21 03:26:46;;;;;;;4.17;3.70;;;;;;;7.66;100.00;153328.00;5071922;28;20414;-86
2022/12/21 03:29:34;;;;;;;5.03;3.90;;;;;;;7.67;100.00;153329.31;5068101;28;20990;-86
2022/12/21 03:32:22;;;;;;;4.17;3.77;;;;;;;7.67;100.00;153330.59;5070926;28;20466;-86
2022/12/21 03:35:11;;;;;;;5.00;4.23;;;;;;;7.73;100.00;153344.81;5071167;28;20443;-86
2022/12/21 03:37:57;;;;;;;4.67;3.70;;;;;;;7.74;100.00;153348.69;5068496;28;20799;-86
2022/12/21 03:40:47;;;;;;;4.80;3.60;;;;;;;7.68;100.00;153333.16;5071636;28;20964;-86
2022/12/21 03:43:35;;;;;;;5.13;3.63;;;;;;;7.68;100.00;153331.84;5071966;28;20531;-86
2022/12/21 03:46:23;;;;;;;5.73;4.00;;;;;;;7.75;100.00;153349.97;5071668;28;20453;-87
2022/12/21 03:49:10;;;;;;;5.03;3.53;;;;;;;7.76;100.00;153352.53;5061430;28;20446;-86
2022/12/21 03:51:58;;;;;;;4.03;3.47;;;;;;;7.77;100.00;153355.13;5068154;28;20505;-86
2022/12/21 03:54:52;;;;;;;5.30;3.20;;;;;;;7.79;100.00;153360.28;5070441;28;20955;-86
2022/12/21 03:57:39;;;;;;;4.37;3.63;;;;;;;7.82;100.00;153368.03;5068823;28;20438;-87
2022/12/21 04:00:25;;;;;;;5.00;3.50;;;;;;;7.83;100.00;153370.66;5071423;28;20603;-87
2022/12/21 04:03:14;;;;;;;6.37;3.47;;;;;;;7.82;100.00;153368.03;5070153;28;20914;-87
2022/12/21 04:06:03;;;;;;;4.10;3.63;;;;;;;7.85;100.00;153375.81;5061919;28;20445;-87
2022/12/21 04:08:49;;;;;;;3.70;3.40;;;;;;;7.90;100.00;153388.72;5063774;28;20497;-86
2022/12/21 04:14:40;;;;;;;4.80;3.10;;;;;;;7.87;100.00;153380.97;5072575;28;20521;-86
2022/12/21 04:17:25;;;;;;;3.90;3.50;;;;;;;7.86;100.00;153378.41;5066182;28;20426;-87
2022/12/21 04:20:13;;;;;;;4.50;3.60;;;;;;;7.87;100.00;153380.97;5082650;28;20473;-87
2022/12/21 04:29:06;;;;;;;3.97;3.37;;;;;;;7.90;100.00;153388.72;5051497;28;20485;-86
2022/12/21 04:31:52;;;;;;;4.10;3.43;;;;;;;7.96;100.00;153405.53;5073127;28;20468;-86
2022/12/21 04:34:38;;;;;;;5.00;3.27;;;;;;;7.99;100.00;153412.00;5066828;28;20449;-86
2022/12/21 04:37:31;;;;;;;3.73;3.33;;;;;;;7.99;100.00;153413.25;5057905;28;20411;-86
2022/12/21 04:40:17;;;;;;;3.60;3.30;;;;;;;7.95;100.00;153402.94;5072851;28;20546;-86
2022/12/21 04:43:04;;;;;;;4.80;3.30;;;;;;;8.01;100.00;153415.84;5073374;28;20417;-86
2022/12/21 04:45:50;;;;;;;3.70;3.10;;;;;;;8.01;100.00;153417.16;5071763;28;20549;-86
2022/12/21 04:48:37;;;;;;;4.40;2.80;;;;;;;8.04;100.00;153424.91;5067212;28;20500;-86
2022/12/21 04:51:24;;;;;;;4.70;2.80;;;;;;;8.02;100.00;153418.44;5071986;28;20434;-86
2022/12/21 04:54:10;;;;;;;4.10;3.33;;;;;;;8.05;100.00;153427.47;5064294;28;20799;-86
2022/12/21 04:56:55;;;;;;;6.13;3.97;;;;;;;8.11;100.00;153441.69;5074975;28;20900;-86
2022/12/21 04:59:40;;;;;;;6.03;3.03;;;;;;;8.15;100.00;153453.34;5067327;28;20930;-87
2022/12/21 05:02:27;;;;;;;6.97;4.20;;;;;;;8.17;100.00;153458.50;5061393;28;20945;-87
2022/12/21 05:05:14;;;;;;;3.67;2.83;;;;;;;8.11;100.00;153443.00;5074245;28;20501;-87
2022/12/21 05:07:59;;;;;;;8.00;3.93;;;;;;;8.16;100.00;153454.59;5073658;28;20500;-87
2022/12/21 05:10:44;;;;;;;3.10;2.50;;;;;;;8.14;100.00;153450.75;5066281;28;20436;-86
2022/12/21 05:13:30;;;;;;;3.70;3.20;;;;;;;8.08;100.00;153435.22;5069331;28;20775;-86
2022/12/21 05:16:17;;;;;;;3.70;3.10;;;;;;;8.16;100.00;153455.91;5063631;28;20457;-86
2022/12/21 05:19:02;;;;;;;3.43;3.13;;;;;;;8.12;100.00;153444.28;5070251;28;20807;-86
2022/12/21 05:21:49;;;;;;;3.50;3.20;;;;;;;8.16;100.00;153454.59;5071776;28;20481;-86
2022/12/21 05:24:35;;;;;;;4.70;3.30;;;;;;;8.16;100.00;153454.59;5074005;28;20441;-86
2022/12/21 05:27:21;;;;;;;6.10;3.40;;;;;;;8.15;100.00;153452.03;5073048;28;20442;-86
2022/12/21 05:30:07;;;;;;;4.47;3.30;;;;;;;8.17;100.00;153457.19;5073743;28;20442;-86
2022/12/21 05:32:53;;;;;;;4.37;3.00;;;;;;;8.20;100.00;153466.28;5073830;28;20429;-86
2022/12/21 05:35:39;;;;;;;3.53;3.00;;;;;;;8.19;100.00;153463.66;5072388;28;20442;-86
2022/12/21 05:38:26;;;;;;;3.30;3.00;;;;;;;8.19;100.00;153463.66;5077207;28;20465;-86
2022/12/21 05:41:12;;;;;;;3.30;2.70;;;;;;;8.20;100.00;153464.97;5063328;28;20513;-86
2022/12/21 05:43:58;;;;;;;3.03;2.73;;;;;;;8.22;100.00;153470.13;5072516;28;20824;-86
2022/12/21 05:46:43;;;;;;;2.93;2.60;;;;;;;8.21;100.00;153468.81;5068462;28;20451;-86
2022/12/21 05:49:28;;;;;;;4.17;3.20;;;;;;;8.21;100.00;153467.50;5070502;28;20451;-86
2022/12/21 05:52:14;;;;;;;4.00;3.20;;;;;;;8.22;100.00;153470.13;5067767;28;20423;-86
2022/12/21 05:55:00;;;;;;;2.73;2.50;;;;;;;8.22;100.00;153471.44;5071069;28;20955;-86
2022/12/21 05:57:46;;;;;;;3.13;2.60;;;;;;;8.22;100.00;153471.44;5070725;28;20669;-86
2022/12/21 06:00:31;;;;;;;3.23;2.60;;;;;;;8.21;100.00;153467.50;5071736;28;20523;-86
2022/12/21 06:03:16;;;;;;;3.40;2.70;;;;;;;8.26;100.00;153480.50;5066089;28;20435;-86
2022/12/21 06:06:04;;;;;;;5.00;3.40;;;;;;;8.24;100.00;153476.59;5069456;28;20947;-86
2022/12/21 06:08:49;;;;;;;8.03;4.13;;;;;;;8.26;100.00;153480.50;5067992;28;20455;-86
2022/12/21 06:11:36;;;;;;;4.13;3.53;;;;;;;8.25;100.00;153479.19;5071625;28;20461;-87
2022/12/21 06:14:21;;;;;;;2.67;2.30;;;;;;;8.26;100.00;153480.50;5072420;28;20788;-86
2022/12/21 06:17:06;;;;;;;4.20;3.03;;;;;;;8.23;100.00;153474.03;5073107;28;20426;-86
2022/12/21 06:19:53;;;;;;;4.20;3.30;;;;;;;8.28;100.00;153485.69;5071865;28;20822;-85
2022/12/21 06:22:40;;;;;;;2.70;2.30;;;;;;;8.26;100.00;153480.50;5078151;28;20436;-86
2022/12/21 06:25:25;;;;;;;3.00;2.70;;;;;;;8.28;100.00;153485.69;5073600;28;20447;-86
2022/12/21 06:28:12;;;;;;;4.20;3.03;;;;;;;8.31;100.00;153494.72;5072633;28;20462;-85
2022/12/21 06:31:02;;;;;;;3.50;2.80;;;;;;;8.32;100.00;153496.00;5071934;28;20446;-87
2022/12/21 06:33:48;;;;;;;3.80;3.30;;;;;;;8.35;100.00;153505.06;5072969;28;20473;-84
2022/12/21 06:36:33;;;;;;;4.30;3.20;;;;;;;8.39;100.00;153515.38;5073579;28;20426;-86
2022/12/21 06:39:19;;;;;;;3.50;2.80;;;;;;;8.34;100.00;153502.47;5072594;28;20474;-85
2022/12/21 06:42:05;;;;;;;4.13;2.60;;;;;;;8.39;100.00;153515.38;5068496;28;20443;-85
2022/12/21 06:44:52;;;;;;;4.30;2.97;;;;;;;8.35;100.00;153505.06;5071426;28;20443;-86
2022/12/21 06:47:37;;;;;;;3.90;2.70;;;;;;;8.35;100.00;153505.06;5070306;28;20497;-86
2022/12/21 06:50:24;;;;;;;2.87;2.40;;;;;;;8.29;100.00;153489.56;5069195;28;20454;-86
2022/12/21 06:53:09;;;;;;;4.00;2.60;;;;;;;8.30;100.00;153492.16;5072222;28;20943;-86
2022/12/21 06:55:59;;;;;;;2.67;2.40;;;;;;;8.32;100.00;153497.31;5071856;28;20460;-85
2022/12/21 06:58:44;;;;;;;3.33;2.70;;;;;;;8.38;100.00;153512.84;5062661;28;20454;-85
2022/12/21 07:01:33;;;;;;;6.37;3.50;;;;;;;8.39;100.00;153514.13;5067304;28;20509;-85
2022/12/21 07:04:18;;;;;;;3.23;2.77;;;;;;;8.37;100.00;153510.22;5070179;28;20555;-85
2022/12/21 07:07:04;;;;;;;6.33;2.70;;;;;;;8.35;100.00;153505.06;5070085;28;20441;-85
2022/12/21 07:09:49;;;;;;;6.70;3.70;;;;;;;8.39;100.00;153514.13;5068796;28;20565;-85
2022/12/21 07:12:34;;;;;;;9.60;7.90;;;;;;;8.43;100.00;153524.47;5069976;28;20438;-86
2022/12/21 07:15:20;;;;;;;10.23;8.93;;;;;;;8.44;100.00;153528.34;5069036;28;20477;-85
2022/12/21 07:18:07;;;;;;;7.03;5.97;;;;;;;8.49;100.00;153539.97;5061604;28;20439;-86
2022/12/21 07:20:56;;;;;;;4.27;3.40;;;;;;;8.47;100.00;153536.06;5053202;28;20663;-87
2022/12/21 07:23:45;;;;;;;3.70;2.70;;;;;;;8.50;100.00;153542.53;5063262;28;20453;-87
2022/12/21 07:26:31;;;;;;;3.83;2.70;;;;;;;8.49;100.00;153539.97;5064895;28;20953;-86
2022/12/21 07:29:16;;;;;;;3.67;3.20;;;;;;;8.49;100.00;153541.28;5068494;28;20481;-86
2022/12/21 07:32:02;;;;;;;6.07;2.57;;;;;;;8.50;100.00;153542.53;5069048;28;20565;-87
2022/12/21 07:34:51;;;;;;;2.97;2.53;;;;;;;8.50;100.00;153543.84;5071077;28;20441;-87
2022/12/21 07:37:36;;;;;;;3.00;2.50;;;;;;;8.52;100.00;153547.75;5064792;28;20863;-86
2022/12/21 07:40:22;;;;;;;5.30;3.07;;;;;;;8.51;100.00;153546.44;5083442;28;20477;-86
2022/12/21 07:43:08;;;;;;;3.43;2.63;;;;;;;8.49;100.00;153541.28;5070846;28;20773;-87
2022/12/21 07:46:03;;;;;;;3.03;2.30;;;;;;;8.53;100.00;153551.59;5065182;28;20450;-87
2022/12/21 07:48:49;;;;;;;6.00;3.70;;;;;;;8.55;100.00;153556.75;5070966;28;20446;-86
2022/12/21 07:51:36;;;;;;;5.00;4.20;;;;;;;8.53;100.00;153550.28;5072558;28;20952;-86
2022/12/21 07:54:22;;;;;;;6.53;3.10;;;;;;;8.56;100.00;153558.06;5066710;28;20458;-87
2022/12/21 07:57:07;;;;;;;3.27;2.17;;;;;;;8.66;100.00;153582.66;5070177;28;20774;-87
2022/12/21 07:59:52;;;;;;;3.03;2.10;;;;;;;8.65;100.00;153581.34;5072830;28;20477;-86
2022/12/21 08:02:38;;;;;;;4.00;2.30;;;;;;;8.69;100.00;153591.66;5073852;28;20953;-87
2022/12/21 08:05:24;;;;;;;4.40;2.47;;;;;;;8.67;100.00;153585.22;5075158;28;20466;-87
2022/12/21 08:08:10;;;;;;;5.50;3.97;;;;;;;8.73;100.00;153600.72;5072342;28;20433;-87
2022/12/21 08:10:56;;;;;;;3.80;2.80;;;;;;;8.73;100.00;153602.03;5072601;28;20419;-87
2022/12/21 08:13:42;;;;;;;2.50;2.30;;;;;;;8.69;100.00;153591.66;5073510;28;20515;-87
2022/12/21 08:16:28;;;;;;;3.37;2.83;;;;;;;8.68;100.00;153587.81;5071423;28;20453;-87
2022/12/21 08:19:13;;;;;;;5.67;2.63;;;;;;;8.68;100.00;153589.13;5073597;28;20538;-87
2022/12/21 08:21:58;;;;;;;6.03;2.77;;;;;;;8.74;100.00;153603.28;5073835;28;20504;-87
2022/12/21 08:24:45;;;;;;;4.30;3.10;;;;;;;8.69;100.00;153590.38;5071545;28;20469;-87
2022/12/21 08:27:30;;;;;;;3.30;2.93;;;;;;;8.67;100.00;153586.50;5075184;28;20872;-87
2022/12/21 08:30:16;;;;;;;4.03;2.80;;;;;;;8.67;100.00;153585.22;5078821;28;20468;-87
2022/12/21 08:33:01;;;;;;;6.73;3.40;;;;;;;8.64;100.00;153578.75;5081644;28;20446;-87
2022/12/21 08:35:47;;;;;;;3.97;2.90;;;;;;;8.66;100.00;153583.91;5064135;28;20517;-87
2022/12/21 08:38:35;;;;;;;7.63;3.10;;;;;;;8.66;100.00;153583.91;5070160;28;21044;-87
2022/12/21 08:41:22;;;;;;;4.90;3.00;;;;;;;8.66;100.00;153583.91;5064922;28;20965;-86
2022/12/21 08:44:07;;;;;;;4.03;2.77;;;;;;;8.67;100.00;153585.22;5070774;28;20841;-87
2022/12/21 08:46:53;;;;;;;3.43;2.53;;;;;;;8.65;100.00;153580.03;5079125;28;20444;-86
2022/12/21 08:49:38;;;;;;;3.50;3.13;;;;;;;8.62;100.00;153572.28;5078100;28;20440;-87
2022/12/21 08:52:24;;;;;;;2.60;2.40;;;;;;;8.61;100.00;153569.69;5069616;28;20442;-87
2022/12/21 08:55:09;;;;;;;3.33;2.80;;;;;;;8.64;100.00;153578.75;5071484;28;20449;-86
2022/12/21 08:57:56;;;;;;;3.10;2.60;;;;;;;8.60;100.00;153568.44;5067636;28;20503;-87
2022/12/21 09:00:42;;;;;;;4.60;2.67;;;;;;;8.65;100.00;153580.03;5071907;28;20458;-86
2022/12/21 09:03:27;;;;;;;3.77;3.37;;;;;;;8.64;100.00;153578.75;5066886;28;20443;-86
2022/12/21 09:06:13;;;;;;;4.60;2.77;;;;;;;8.66;100.00;153582.66;5072213;28;21156;-87
2022/12/21 09:08:58;;;;;;;4.80;2.93;;;;;;;8.64;100.00;153578.75;5069891;28;20818;-86
2022/12/21 09:11:44;;;;;;;3.20;2.37;;;;;;;8.71;100.00;153596.81;5067919;28;20445;-86
2022/12/21 09:14:31;;;;;;;3.20;2.70;;;;;;;8.69;100.00;153590.38;5068147;28;20455;-86
2022/12/21 09:17:16;;;;;;;4.63;2.50;;;;;;;8.69;100.00;153590.38;5081026;28;20473;-86
2022/12/21 09:20:02;;;;;;;3.47;2.77;;;;;;;8.69;100.00;153590.38;5066556;28;20520;-86
2022/12/21 09:22:54;;;;;;;4.83;2.50;;;;;;;8.68;100.00;153587.81;5073322;28;20439;-86
2022/12/21 09:29:29;;;;;;;4.60;2.93;;;;;;;8.68;100.00;153587.81;5065453;28;20481;-85
2022/12/21 09:32:15;;;;;;;3.93;3.53;;;;;;;8.65;100.00;153580.03;5071063;28;20445;-86
2022/12/21 09:35:01;;;;;;;4.13;2.63;;;;;;;8.68;100.00;153587.81;5084691;28;20458;-86
2022/12/21 09:37:46;;;;;;;6.30;4.07;;;;;;;8.64;100.00;153577.44;5066716;28;20446;-86
2022/12/21 09:40:32;;;;;;;3.67;2.60;;;;;;;8.64;100.00;153578.75;5072907;28;20469;-86
2022/12/21 09:43:25;;;;;;;5.37;2.83;;;;;;;8.63;100.00;153574.88;5072388;28;20533;-85
2022/12/21 09:46:11;;;;;;;3.40;2.73;;;;;;;8.66;100.00;153582.66;5073552;28;20444;-84
2022/12/21 09:49:01;;;;;;;3.63;2.60;;;;;;;8.67;100.00;153586.50;5063948;28;20431;-84
2022/12/21 09:51:50;;;;;;;2.60;2.40;;;;;;;8.69;100.00;153591.66;5060975;28;20462;-85
2022/12/21 09:54:40;;;;;;;3.60;2.43;;;;;;;8.70;100.00;153594.28;5072664;28;20505;-85
2022/12/21 09:57:28;;;;;;;3.57;2.60;;;;;;;8.73;100.00;153600.72;5071929;28;20818;-85
2022/12/21 10:00:15;;;;;;;3.27;2.60;;;;;;;8.72;100.00;153598.13;5072034;28;20525;-85
2022/12/21 10:03:15;;;;;;;3.30;2.90;;;;;;;8.75;100.00;153607.19;5068432;28;20479;-85
2022/12/21 10:06:21;;;;;;;4.00;2.60;;;;;;;8.77;100.00;153612.34;5074441;28;20455;-85
2022/12/21 10:09:21;;;;;;;3.43;3.10;;;;;;;8.77;100.00;153612.34;5069484;28;20433;-85
2022/12/21 10:12:15;;;;;;;2.57;2.10;;;;;;;8.79;100.00;153616.25;5077240;28;20437;-85
2022/12/21 10:15:10;;;;;;;3.40;2.97;;;;;;;8.84;100.00;153629.19;5071992;28;20798;-85
2022/12/21 10:18:04;;;;;;;3.47;2.67;;;;;;;8.87;100.00;153638.22;5068441;28;20445;-86
2022/12/21 10:20:54;;;;;;;3.67;2.90;;;;;;;8.93;100.00;153652.44;5066594;28;20493;-85
2022/12/21 10:23:44;;;;;;;3.80;2.13;;;;;;;8.95;100.00;153658.91;5069299;28;21019;-85
2022/12/21 10:26:33;;;;;;;3.53;2.80;;;;;;;8.99;100.00;153667.97;5070048;28;20454;-86
2022/12/21 10:29:20;;;;;;;3.30;2.43;;;;;;;9.02;100.00;153675.72;5071583;28;20548;-85
2022/12/21 10:32:06;;;;;;;3.23;2.67;;;;;;;9.04;100.00;153680.88;5071625;28;20897;-86
2022/12/21 10:34:54;;;;;;;7.50;2.70;;;;;;;9.07;100.00;153688.66;5071704;28;20454;-85
2022/12/21 10:37:39;;;;;;;4.07;3.60;;;;;;;9.08;100.00;153691.25;5066600;28;20421;-85
2022/12/21 10:40:28;;;;;;;5.87;4.87;;;;;;;9.05;100.00;153683.50;5062124;28;20456;-85
2022/12/21 10:43:13;;;;;;;12.67;10.77;;;;;;;9.11;100.00;153698.97;5066153;28;20910;-85
2022/12/21 10:45:59;;;;;;;9.27;8.27;;;;;;;9.15;100.00;153709.34;5081336;28;20800;-85
2022/12/21 10:48:45;;;;;;;5.03;4.53;;;;;;;9.16;100.00;153711.91;5073838;28;20450;-85
2022/12/21 10:51:33;;;;;;;4.33;3.37;;;;;;;9.14;100.00;153706.75;5070450;28;20450;-85
2022/12/21 10:54:25;;;;;;;4.57;2.90;;;;;;;9.17;100.00;153714.50;5065563;28;20571;-85
2022/12/21 10:57:13;;;;;;;7.73;3.20;;;;;;;9.14;100.00;153708.03;5067780;28;20454;-85
2022/12/21 11:00:05;;;;;;;3.53;3.20;;;;;;;9.13;100.00;153705.44;5064582;28;20791;-86
2022/12/21 11:02:52;;;;;;;5.00;3.90;;;;;;;9.18;100.00;153717.13;5071812;28;20468;-86
2022/12/21 11:05:38;;;;;;;3.60;3.30;;;;;;;9.24;100.00;153732.59;5061717;28;20973;-86
2022/12/21 11:08:26;;;;;;;3.50;3.20;;;;;;;9.20;100.00;153722.28;5071301;28;20955;-85
2022/12/21 11:11:28;;;;;;;4.40;3.47;;;;;;;9.22;100.00;153727.44;5071162;28;20794;-86
2022/12/21 11:14:16;;;;;;;3.40;3.00;;;;;;;9.19;100.00;153719.69;5070114;28;20442;-86
2022/12/21 11:17:01;;;;;;;3.80;3.50;;;;;;;9.20;100.00;153722.28;5063399;28;20434;-86
2022/12/21 11:19:48;;;;;;;3.50;2.93;;;;;;;9.20;100.00;153722.28;5070628;28;20766;-86
2022/12/21 11:22:34;;;;;;;3.83;3.53;;;;;;;9.25;100.00;153733.91;5056582;28;20455;-85
2022/12/21 11:25:21;;;;;;;4.20;3.40;;;;;;;9.31;100.00;153750.75;5070458;28;20446;-85
2022/12/21 11:28:08;;;;;;;4.00;3.07;;;;;;;9.40;100.00;153772.75;5069554;28;20480;-85
2022/12/21 11:30:56;;;;;;;4.93;3.90;;;;;;;9.46;100.00;153789.53;5063429;28;20443;-85
2022/12/21 11:33:44;;;;;;;3.97;3.57;;;;;;;9.45;100.00;153786.94;5060790;28;20470;-85
2022/12/21 11:36:29;;;;;;;3.10;2.80;;;;;;;9.45;100.00;153786.94;5069110;28;20520;-86
2022/12/21 11:39:15;;;;;;;2.90;2.60;;;;;;;9.45;100.00;153785.69;5071250;28;20530;-85
2022/12/21 11:42:00;;;;;;;3.37;3.07;;;;;;;9.42;100.00;153779.22;5071497;28;20489;-85
2022/12/21 11:44:46;;;;;;;3.60;2.80;;;;;;;9.38;100.00;153768.84;5052872;28;20407;-86
2022/12/21 11:47:45;;;;;;;3.90;3.20;;;;;;;9.35;100.00;153761.06;5070583;28;20949;-85
2022/12/21 11:50:43;;;;;;;3.67;3.33;;;;;;;9.36;100.00;153763.66;5063146;28;20414;-86
2022/12/21 11:53:50;;;;;;;5.03;4.53;;;;;;;9.45;100.00;153786.94;5066708;28;20445;-85
2022/12/21 11:56:37;;;;;;;4.60;4.10;;;;;;;9.53;100.00;153806.38;5066721;28;20460;-85
2022/12/21 11:59:50;;;;;;;5.70;4.47;;;;;;;9.59;100.00;153823.16;5065849;28;20491;-85
2022/12/21 12:03:09;;;;;;;4.00;3.57;;;;;;;9.68;100.00;153846.47;5070555;28;20582;-86
2022/12/21 12:06:19;;;;;;;4.63;4.13;;;;;;;9.77;100.00;153869.75;5070192;28;20895;-87
2022/12/21 12:09:15;;;;;;;5.07;3.30;;;;;;;9.88;100.00;153896.91;5070221;28;20958;-86
2022/12/21 12:12:05;;;;;;;4.80;3.90;;;;;;;9.90;100.00;153900.81;5068343;28;20956;-85
2022/12/21 12:15:07;;;;;;;3.87;3.47;;;;;;;9.87;100.00;153893.06;5068626;28;21015;-85
2022/12/21 12:18:02;;;;;;;4.77;3.60;;;;;;;9.84;100.00;153886.59;5063920;28;20454;-86
2022/12/21 12:21:02;;;;;;;5.43;4.63;;;;;;;9.84;100.00;153886.59;5081434;28;20833;-85
2022/12/21 12:23:54;;;;;;;5.10;3.80;;;;;;;9.71;100.00;153854.25;5069201;28;21082;-85
2022/12/21 12:26:42;;;;;;;4.80;4.30;;;;;;;9.71;100.00;153854.25;5069092;28;20444;-86
2022/12/21 12:29:45;;;;;;;7.00;5.17;;;;;;;9.68;100.00;153846.47;5068885;28;20580;-85
2022/12/21 12:32:40;;;;;;;4.27;3.40;;;;;;;9.73;100.00;153858.09;5066409;28;20487;-85
2022/12/21 12:35:40;;;;;;;3.80;3.23;;;;;;;9.75;100.00;153863.28;5069998;28;20531;-85
2022/12/21 12:38:36;;;;;;;4.57;4.17;;;;;;;9.78;100.00;153872.34;5069807;28;20439;-86
2022/12/21 12:41:30;;;;;;;5.00;3.70;;;;;;;9.85;100.00;153889.16;5072859;28;20474;-85
2022/12/21 12:44:22;;;;;;;5.07;4.10;;;;;;;9.91;100.00;153903.38;5074125;28;20513;-85
2022/12/21 12:47:14;;;;;;;5.77;4.83;;;;;;;9.92;100.00;153906.00;5070345;28;20516;-85
2022/12/21 12:50:08;;;;;;;3.30;2.97;;;;;;;9.95;100.00;153913.75;5067811;28;20597;-85
2022/12/21 12:53:01;;;;;;;3.07;2.40;;;;;;;9.95;100.00;153913.75;5072760;28;20589;-85
2022/12/21 12:55:54;;;;;;;4.20;2.80;;;;;;;9.96;100.00;153916.31;5082668;28;20462;-85
2022/12/21 12:58:46;;;;;;;3.20;2.83;;;;;;;10.00;100.00;153926.69;5068023;28;20805;-85
2022/12/21 13:01:36;;;;;;;3.67;2.47;;;;;;;10.04;100.00;153937.03;5068900;28;20913;-85
2022/12/21 13:04:34;;;;;;;4.00;2.90;;;;;;;10.01;100.00;153929.25;5069900;28;20465;-85
2022/12/21 13:07:24;;;;;;;3.30;2.47;;;;;;;10.02;100.00;153931.88;5071486;28;20798;-85
2022/12/21 13:10:18;;;;;;;2.53;2.10;;;;;;;10.09;100.00;153951.25;5077541;28;21156;-85
2022/12/21 13:13:12;;;;;;;4.50;2.60;;;;;;;10.05;100.00;153939.63;5086657;28;20435;-86
2022/12/21 13:16:02;;;;;;;2.70;2.50;;;;;;;10.08;100.00;153948.72;5064819;28;20444;-85
2022/12/21 13:18:50;;;;;;;2.47;1.90;;;;;;;10.08;100.00;153948.72;5077423;28;20577;-85
2022/12/21 13:21:37;;;;;;;2.73;2.20;;;;;;;10.09;100.00;153949.97;5073328;28;20596;-85
2022/12/21 13:24:28;;;;;;;2.53;2.07;;;;;;;10.09;100.00;153949.97;5070276;28;20443;-85